sensor_id;sensor_type;location;lat;lon;timestamp;temperature;humidity
20690;DHT22;10504;48.762;8.996;2024-02-14T00:01:35;3.80;99.90
20690;DHT22;10504;48.762;8.996;2024-02-14T00:04:03;3.80;99.90
20690;DHT22;10504;48.762;8.996;2024-02-14T00:06:28;3.90;99.90
20690;DHT22;10504;48.762;8.996;2024-02-14T00:08:54;3.90;99.90
20690;DHT22;10504;48.762;8.996;2024-02-14T00:11:20;3.90;99.90
20690;DHT22;10504;48.762;8.996;2024-02-14T00:13:45;4.00;99.90
20690;DHT22;10504;48.762;8.996;2024-02-14T00:16:11;4.00;99.90
20690;DHT22;10504;48.762;8.996;2024-02-14T00:18:36;4.10;99.90
20690;DHT22;10504;48.762;8.996;2024-02-14T00:21:02;4.10;99.90
20690;DHT22;10504;48.762;8.996;2024-02-14T00:23:28;4.20;99.90
20690;DHT22;10504;48.762;8.996;2024-02-14T00:25:54;4.20;99.90
20690;DHT22;10504;48.762;8.996;2024-02-14T00:28:19;4.20;99.90
20690;DHT22;10504;48.762;8.996;2024-02-14T00:30:45;4.30;99.90
20690;DHT22;10504;48.762;8.996;2024-02-14T00:33:11;4.30;99.90
20690;DHT22;10504;48.762;8.996;2024-02-14T00:35:36;4.30;99.90
20690;DHT22;10504;48.762;8.996;2024-02-14T00:38:02;4.40;99.90
20690;DHT22;10504;48.762;8.996;2024-02-14T00:40:27;4.40;99.90
20690;DHT22;10504;48.762;8.996;2024-02-14T00:42:53;4.40;99.90
20690;DHT22;10504;48.762;8.996;2024-02-14T00:45:19;4.40;99.90
20690;DHT22;10504;48.762;8.996;2024-02-14T00:47:44;4.50;99.90
20690;DHT22;10504;48.762;8.996;2024-02-14T00:50:10;4.50;99.90
20690;DHT22;10504;48.762;8.996;2024-02-14T00:52:39;4.50;99.90
20690;DHT22;10504;48.762;8.996;2024-02-14T00:55:05;4.50;99.90
20690;DHT22;10504;48.762;8.996;2024-02-14T00:57:31;4.50;99.90
20690;DHT22;10504;48.762;8.996;2024-02-14T00:59:57;4.40;99.90
20690;DHT22;10504;48.762;8.996;2024-02-14T01:02:23;4.40;99.90
20690;DHT22;10504;48.762;8.996;2024-02-14T01:04:49;4.30;99.90
20690;DHT22;10504;48.762;8.996;2024-02-14T01:07:14;4.30;99.90
20690;DHT22;10504;48.762;8.996;2024-02-14T01:09:40;4.20;99.90
20690;DHT22;10504;48.762;8.996;2024-02-14T01:12:05;4.20;99.90
20690;DHT22;10504;48.762;8.996;2024-02-14T01:14:32;4.10;99.90
20690;DHT22;10504;48.762;8.996;2024-02-14T01:17:01;4.10;99.90
20690;DHT22;10504;48.762;8.996;2024-02-14T01:19:29;4.10;99.90
20690;DHT22;10504;48.762;8.996;2024-02-14T01:21:55;4.10;99.90
20690;DHT22;10504;48.762;8.996;2024-02-14T01:24:22;4.10;99.90
20690;DHT22;10504;48.762;8.996;2024-02-14T01:26:48;4.10;99.90
20690;DHT22;10504;48.762;8.996;2024-02-14T01:29:16;4.10;99.90
20690;DHT22;10504;48.762;8.996;2024-02-14T01:31:42;4.10;99.90
20690;DHT22;10504;48.762;8.996;2024-02-14T01:34:07;4.00;99.90
20690;DHT22;10504;48.762;8.996;2024-02-14T01:36:33;4.00;99.90
20690;DHT22;10504;48.762;8.996;2024-02-14T01:38:59;4.00;99.90
20690;DHT22;10504;48.762;8.996;2024-02-14T01:41:24;4.00;99.90
20690;DHT22;10504;48.762;8.996;2024-02-14T01:43:50;4.00;99.90
20690;DHT22;10504;48.762;8.996;2024-02-14T01:46:16;4.00;99.90
20690;DHT22;10504;48.762;8.996;2024-02-14T01:48:42;4.00;99.90
20690;DHT22;10504;48.762;8.996;2024-02-14T01:51:09;4.00;99.90
20690;DHT22;10504;48.762;8.996;2024-02-14T01:53:37;4.00;99.90
20690;DHT22;10504;48.762;8.996;2024-02-14T01:56:04;4.10;99.90
20690;DHT22;10504;48.762;8.996;2024-02-14T01:58:31;4.10;99.90
20690;DHT22;10504;48.762;8.996;2024-02-14T02:00:58;4.10;99.90
20690;DHT22;10504;48.762;8.996;2024-02-14T02:03:26;4.10;99.90
20690;DHT22;10504;48.762;8.996;2024-02-14T02:05:53;4.20;99.90
20690;DHT22;10504;48.762;8.996;2024-02-14T02:08:23;4.20;99.90
20690;DHT22;10504;48.762;8.996;2024-02-14T02:10:49;4.20;99.90
20690;DHT22;10504;48.762;8.996;2024-02-14T02:13:15;4.20;99.90
20690;DHT22;10504;48.762;8.996;2024-02-14T02:15:41;4.20;99.90
20690;DHT22;10504;48.762;8.996;2024-02-14T02:18:09;4.20;99.90
20690;DHT22;10504;48.762;8.996;2024-02-14T02:20:35;4.20;99.90
20690;DHT22;10504;48.762;8.996;2024-02-14T02:23:01;4.10;99.90
20690;DHT22;10504;48.762;8.996;2024-02-14T02:25:28;4.10;99.90
20690;DHT22;10504;48.762;8.996;2024-02-14T02:27:53;4.10;99.90
20690;DHT22;10504;48.762;8.996;2024-02-14T02:30:23;4.00;99.90
20690;DHT22;10504;48.762;8.996;2024-02-14T02:32:49;4.00;99.90
20690;DHT22;10504;48.762;8.996;2024-02-14T02:35:18;4.00;99.90
20690;DHT22;10504;48.762;8.996;2024-02-14T02:37:47;3.90;99.90
20690;DHT22;10504;48.762;8.996;2024-02-14T02:40:17;3.90;99.90
20690;DHT22;10504;48.762;8.996;2024-02-14T02:42:43;4.00;99.90
20690;DHT22;10504;48.762;8.996;2024-02-14T02:45:11;3.90;99.90
20690;DHT22;10504;48.762;8.996;2024-02-14T02:47:36;3.90;99.90
20690;DHT22;10504;48.762;8.996;2024-02-14T02:50:02;4.00;99.90
20690;DHT22;10504;48.762;8.996;2024-02-14T02:52:29;4.00;99.90
20690;DHT22;10504;48.762;8.996;2024-02-14T02:54:56;4.00;99.90
20690;DHT22;10504;48.762;8.996;2024-02-14T02:57:21;4.00;99.90
20690;DHT22;10504;48.762;8.996;2024-02-14T02:59:47;4.10;99.90
20690;DHT22;10504;48.762;8.996;2024-02-14T03:02:14;4.10;99.90
20690;DHT22;10504;48.762;8.996;2024-02-14T03:04:40;4.20;99.90
20690;DHT22;10504;48.762;8.996;2024-02-14T03:07:08;4.10;99.90
20690;DHT22;10504;48.762;8.996;2024-02-14T03:09:34;4.20;99.90
20690;DHT22;10504;48.762;8.996;2024-02-14T03:12:04;4.20;99.90
20690;DHT22;10504;48.762;8.996;2024-02-14T03:14:31;4.20;99.90
20690;DHT22;10504;48.762;8.996;2024-02-14T03:17:02;4.20;99.90
20690;DHT22;10504;48.762;8.996;2024-02-14T03:19:28;4.20;99.90
20690;DHT22;10504;48.762;8.996;2024-02-14T03:21:54;4.20;99.90
20690;DHT22;10504;48.762;8.996;2024-02-14T03:24:20;4.10;99.90
20690;DHT22;10504;48.762;8.996;2024-02-14T03:26:46;4.10;99.90
20690;DHT22;10504;48.762;8.996;2024-02-14T03:29:12;4.10;99.90
20690;DHT22;10504;48.762;8.996;2024-02-14T03:31:38;4.00;99.90
20690;DHT22;10504;48.762;8.996;2024-02-14T03:34:04;4.00;99.90
20690;DHT22;10504;48.762;8.996;2024-02-14T03:36:30;3.90;99.90
20690;DHT22;10504;48.762;8.996;2024-02-14T03:39:00;3.90;99.90
20690;DHT22;10504;48.762;8.996;2024-02-14T03:41:29;3.90;99.90
20690;DHT22;10504;48.762;8.996;2024-02-14T03:43:55;3.90;99.90
20690;DHT22;10504;48.762;8.996;2024-02-14T03:46:24;3.90;99.90
20690;DHT22;10504;48.762;8.996;2024-02-14T03:48:50;3.80;99.90
20690;DHT22;10504;48.762;8.996;2024-02-14T03:51:15;3.80;99.90
20690;DHT22;10504;48.762;8.996;2024-02-14T03:53:42;3.80;99.90
20690;DHT22;10504;48.762;8.996;2024-02-14T03:56:07;3.80;99.90
20690;DHT22;10504;48.762;8.996;2024-02-14T03:58:33;3.90;99.90
20690;DHT22;10504;48.762;8.996;2024-02-14T04:01:05;3.80;99.90
20690;DHT22;10504;48.762;8.996;2024-02-14T04:03:31;3.80;99.90
20690;DHT22;10504;48.762;8.996;2024-02-14T04:05:57;3.90;99.90
20690;DHT22;10504;48.762;8.996;2024-02-14T04:08:23;3.90;99.90
20690;DHT22;10504;48.762;8.996;2024-02-14T04:10:49;3.90;99.90
20690;DHT22;10504;48.762;8.996;2024-02-14T04:13:19;3.90;99.90
20690;DHT22;10504;48.762;8.996;2024-02-14T04:15:45;3.90;99.90
20690;DHT22;10504;48.762;8.996;2024-02-14T04:18:12;3.90;99.90
20690;DHT22;10504;48.762;8.996;2024-02-14T04:20:38;3.90;99.90
20690;DHT22;10504;48.762;8.996;2024-02-14T04:23:03;3.90;99.90
20690;DHT22;10504;48.762;8.996;2024-02-14T04:25:32;4.00;99.90
20690;DHT22;10504;48.762;8.996;2024-02-14T04:27:57;3.90;99.90
20690;DHT22;10504;48.762;8.996;2024-02-14T04:30:24;4.00;99.90
20690;DHT22;10504;48.762;8.996;2024-02-14T04:32:50;4.00;99.90
20690;DHT22;10504;48.762;8.996;2024-02-14T04:35:19;4.00;99.90
20690;DHT22;10504;48.762;8.996;2024-02-14T04:37:45;4.10;99.90
20690;DHT22;10504;48.762;8.996;2024-02-14T04:40:12;4.10;99.90
20690;DHT22;10504;48.762;8.996;2024-02-14T04:42:38;4.20;99.90
20690;DHT22;10504;48.762;8.996;2024-02-14T04:45:04;4.20;99.90
20690;DHT22;10504;48.762;8.996;2024-02-14T04:47:30;4.20;99.90
20690;DHT22;10504;48.762;8.996;2024-02-14T04:49:55;4.30;99.90
20690;DHT22;10504;48.762;8.996;2024-02-14T04:52:21;4.30;99.90
20690;DHT22;10504;48.762;8.996;2024-02-14T04:54:47;4.30;99.90
20690;DHT22;10504;48.762;8.996;2024-02-14T04:57:13;4.40;99.90
20690;DHT22;10504;48.762;8.996;2024-02-14T04:59:39;4.40;99.90
20690;DHT22;10504;48.762;8.996;2024-02-14T05:02:05;4.40;99.90
20690;DHT22;10504;48.762;8.996;2024-02-14T05:04:30;4.40;99.90
20690;DHT22;10504;48.762;8.996;2024-02-14T05:06:57;4.40;99.90
20690;DHT22;10504;48.762;8.996;2024-02-14T05:09:22;4.40;99.90
20690;DHT22;10504;48.762;8.996;2024-02-14T05:11:48;4.40;99.90
20690;DHT22;10504;48.762;8.996;2024-02-14T05:14:14;4.40;99.90
20690;DHT22;10504;48.762;8.996;2024-02-14T05:16:39;4.50;99.90
20690;DHT22;10504;48.762;8.996;2024-02-14T05:19:06;4.50;99.90
20690;DHT22;10504;48.762;8.996;2024-02-14T05:21:31;4.50;99.90
20690;DHT22;10504;48.762;8.996;2024-02-14T05:23:57;4.50;99.90
20690;DHT22;10504;48.762;8.996;2024-02-14T05:26:23;4.50;99.90
20690;DHT22;10504;48.762;8.996;2024-02-14T05:28:48;4.50;99.90
20690;DHT22;10504;48.762;8.996;2024-02-14T05:31:14;4.60;99.90
20690;DHT22;10504;48.762;8.996;2024-02-14T05:33:41;4.60;99.90
20690;DHT22;10504;48.762;8.996;2024-02-14T05:36:08;4.60;99.90
20690;DHT22;10504;48.762;8.996;2024-02-14T05:38:34;4.60;99.90
20690;DHT22;10504;48.762;8.996;2024-02-14T05:40:59;4.50;99.90
20690;DHT22;10504;48.762;8.996;2024-02-14T05:43:26;4.50;99.90
20690;DHT22;10504;48.762;8.996;2024-02-14T05:45:51;4.50;99.90
20690;DHT22;10504;48.762;8.996;2024-02-14T05:48:17;4.60;99.90
20690;DHT22;10504;48.762;8.996;2024-02-14T05:50:42;4.60;99.90
20690;DHT22;10504;48.762;8.996;2024-02-14T05:53:08;4.50;99.90
20690;DHT22;10504;48.762;8.996;2024-02-14T05:55:34;4.50;99.90
20690;DHT22;10504;48.762;8.996;2024-02-14T05:57:59;4.50;99.90
20690;DHT22;10504;48.762;8.996;2024-02-14T06:00:25;4.60;99.90
20690;DHT22;10504;48.762;8.996;2024-02-14T06:02:51;4.60;99.90
20690;DHT22;10504;48.762;8.996;2024-02-14T06:05:16;4.60;99.90
20690;DHT22;10504;48.762;8.996;2024-02-14T06:07:42;4.60;99.90
20690;DHT22;10504;48.762;8.996;2024-02-14T06:10:10;4.60;99.90
20690;DHT22;10504;48.762;8.996;2024-02-14T06:12:36;4.60;99.90
20690;DHT22;10504;48.762;8.996;2024-02-14T06:15:02;4.60;99.90
20690;DHT22;10504;48.762;8.996;2024-02-14T06:17:28;4.60;99.90
20690;DHT22;10504;48.762;8.996;2024-02-14T06:19:54;4.70;99.90
20690;DHT22;10504;48.762;8.996;2024-02-14T06:22:20;4.70;99.90
20690;DHT22;10504;48.762;8.996;2024-02-14T06:24:47;4.70;99.90
20690;DHT22;10504;48.762;8.996;2024-02-14T06:27:15;4.70;99.90
20690;DHT22;10504;48.762;8.996;2024-02-14T06:29:44;4.70;99.90
20690;DHT22;10504;48.762;8.996;2024-02-14T06:32:12;4.70;99.90
20690;DHT22;10504;48.762;8.996;2024-02-14T06:34:38;4.70;99.90
20690;DHT22;10504;48.762;8.996;2024-02-14T06:37:04;4.80;99.90
20690;DHT22;10504;48.762;8.996;2024-02-14T06:39:29;4.80;99.90
20690;DHT22;10504;48.762;8.996;2024-02-14T06:41:56;4.80;99.90
20690;DHT22;10504;48.762;8.996;2024-02-14T06:44:23;4.80;99.90
20690;DHT22;10504;48.762;8.996;2024-02-14T06:46:48;4.70;99.90
20690;DHT22;10504;48.762;8.996;2024-02-14T06:49:16;4.70;99.90
20690;DHT22;10504;48.762;8.996;2024-02-14T06:51:42;4.70;99.90
20690;DHT22;10504;48.762;8.996;2024-02-14T06:54:07;4.70;99.90
20690;DHT22;10504;48.762;8.996;2024-02-14T06:56:33;4.70;99.90
20690;DHT22;10504;48.762;8.996;2024-02-14T06:58:59;4.70;99.90
20690;DHT22;10504;48.762;8.996;2024-02-14T07:01:28;4.70;99.90
20690;DHT22;10504;48.762;8.996;2024-02-14T07:03:54;4.70;99.90
20690;DHT22;10504;48.762;8.996;2024-02-14T07:06:20;4.70;99.90
20690;DHT22;10504;48.762;8.996;2024-02-14T07:08:46;4.70;99.90
20690;DHT22;10504;48.762;8.996;2024-02-14T07:11:13;4.70;99.90
20690;DHT22;10504;48.762;8.996;2024-02-14T07:13:39;4.70;99.90
20690;DHT22;10504;48.762;8.996;2024-02-14T07:16:05;4.80;99.90
20690;DHT22;10504;48.762;8.996;2024-02-14T07:18:30;4.80;99.90
20690;DHT22;10504;48.762;8.996;2024-02-14T07:20:56;4.80;99.90
20690;DHT22;10504;48.762;8.996;2024-02-14T07:23:21;4.90;99.90
20690;DHT22;10504;48.762;8.996;2024-02-14T07:25:47;4.90;99.90
20690;DHT22;10504;48.762;8.996;2024-02-14T07:28:13;5.00;99.90
20690;DHT22;10504;48.762;8.996;2024-02-14T07:30:38;5.00;99.90
20690;DHT22;10504;48.762;8.996;2024-02-14T07:33:04;5.00;99.90
20690;DHT22;10504;48.762;8.996;2024-02-14T07:35:30;5.10;99.90
20690;DHT22;10504;48.762;8.996;2024-02-14T07:37:56;5.10;99.90
20690;DHT22;10504;48.762;8.996;2024-02-14T07:40:22;5.20;99.90
20690;DHT22;10504;48.762;8.996;2024-02-14T07:42:48;5.20;99.90
20690;DHT22;10504;48.762;8.996;2024-02-14T07:45:14;5.20;99.90
20690;DHT22;10504;48.762;8.996;2024-02-14T07:47:40;5.30;99.90
20690;DHT22;10504;48.762;8.996;2024-02-14T07:50:07;5.30;99.90
20690;DHT22;10504;48.762;8.996;2024-02-14T07:52:33;5.40;99.90
20690;DHT22;10504;48.762;8.996;2024-02-14T07:54:58;5.40;99.90
20690;DHT22;10504;48.762;8.996;2024-02-14T07:57:24;5.50;99.90
20690;DHT22;10504;48.762;8.996;2024-02-14T07:59:51;5.60;99.90
20690;DHT22;10504;48.762;8.996;2024-02-14T08:02:17;5.60;99.90
20690;DHT22;10504;48.762;8.996;2024-02-14T08:04:43;5.60;99.90
20690;DHT22;10504;48.762;8.996;2024-02-14T08:07:09;5.70;99.90
20690;DHT22;10504;48.762;8.996;2024-02-14T08:09:35;5.70;99.90
20690;DHT22;10504;48.762;8.996;2024-02-14T08:12:01;5.80;99.90
20690;DHT22;10504;48.762;8.996;2024-02-14T08:14:27;5.80;99.90
20690;DHT22;10504;48.762;8.996;2024-02-14T08:16:53;5.80;99.90
20690;DHT22;10504;48.762;8.996;2024-02-14T08:19:18;5.80;99.90
20690;DHT22;10504;48.762;8.996;2024-02-14T08:21:45;5.90;99.90
20690;DHT22;10504;48.762;8.996;2024-02-14T08:24:10;5.90;99.90
20690;DHT22;10504;48.762;8.996;2024-02-14T08:26:36;6.00;99.90
20690;DHT22;10504;48.762;8.996;2024-02-14T08:29:02;6.00;99.90
20690;DHT22;10504;48.762;8.996;2024-02-14T08:31:29;6.00;99.90
20690;DHT22;10504;48.762;8.996;2024-02-14T08:33:54;6.10;99.90
20690;DHT22;10504;48.762;8.996;2024-02-14T08:36:20;6.10;99.90
20690;DHT22;10504;48.762;8.996;2024-02-14T08:38:46;6.20;99.90
20690;DHT22;10504;48.762;8.996;2024-02-14T08:41:12;6.20;99.90
20690;DHT22;10504;48.762;8.996;2024-02-14T08:43:38;6.20;99.90
20690;DHT22;10504;48.762;8.996;2024-02-14T08:46:12;6.30;99.90
20690;DHT22;10504;48.762;8.996;2024-02-14T08:48:38;6.30;99.90
20690;DHT22;10504;48.762;8.996;2024-02-14T08:51:11;6.30;99.90
20690;DHT22;10504;48.762;8.996;2024-02-14T08:53:37;6.40;99.90
20690;DHT22;10504;48.762;8.996;2024-02-14T08:56:03;6.50;99.90
20690;DHT22;10504;48.762;8.996;2024-02-14T08:58:29;6.50;99.90
20690;DHT22;10504;48.762;8.996;2024-02-14T09:00:55;6.50;99.90
20690;DHT22;10504;48.762;8.996;2024-02-14T09:03:20;6.50;99.90
20690;DHT22;10504;48.762;8.996;2024-02-14T09:05:46;6.60;99.90
20690;DHT22;10504;48.762;8.996;2024-02-14T09:08:14;6.60;99.90
20690;DHT22;10504;48.762;8.996;2024-02-14T09:10:40;6.60;99.90
20690;DHT22;10504;48.762;8.996;2024-02-14T09:13:05;6.70;99.90
20690;DHT22;10504;48.762;8.996;2024-02-14T09:15:33;6.70;99.90
20690;DHT22;10504;48.762;8.996;2024-02-14T09:17:59;6.70;99.90
20690;DHT22;10504;48.762;8.996;2024-02-14T09:20:25;6.70;99.90
20690;DHT22;10504;48.762;8.996;2024-02-14T09:22:51;6.80;99.90
20690;DHT22;10504;48.762;8.996;2024-02-14T09:25:18;6.80;99.90
20690;DHT22;10504;48.762;8.996;2024-02-14T09:27:44;6.80;99.90
20690;DHT22;10504;48.762;8.996;2024-02-14T09:30:12;6.90;99.90
20690;DHT22;10504;48.762;8.996;2024-02-14T09:32:38;6.90;99.90
20690;DHT22;10504;48.762;8.996;2024-02-14T09:35:04;6.90;99.90
20690;DHT22;10504;48.762;8.996;2024-02-14T09:37:32;7.00;99.90
20690;DHT22;10504;48.762;8.996;2024-02-14T09:39:58;7.00;99.90
20690;DHT22;10504;48.762;8.996;2024-02-14T09:42:37;7.00;99.90
20690;DHT22;10504;48.762;8.996;2024-02-14T09:45:06;7.10;99.90
20690;DHT22;10504;48.762;8.996;2024-02-14T09:47:33;7.10;99.90
20690;DHT22;10504;48.762;8.996;2024-02-14T09:50:00;7.10;99.90
20690;DHT22;10504;48.762;8.996;2024-02-14T09:52:26;7.10;99.90
20690;DHT22;10504;48.762;8.996;2024-02-14T09:54:53;7.00;99.90
20690;DHT22;10504;48.762;8.996;2024-02-14T09:57:19;7.00;99.90
20690;DHT22;10504;48.762;8.996;2024-02-14T09:59:46;7.10;99.90
20690;DHT22;10504;48.762;8.996;2024-02-14T10:02:13;7.10;99.90
20690;DHT22;10504;48.762;8.996;2024-02-14T10:04:39;7.10;99.90
20690;DHT22;10504;48.762;8.996;2024-02-14T10:07:05;7.10;99.90
20690;DHT22;10504;48.762;8.996;2024-02-14T10:09:31;7.20;99.90
20690;DHT22;10504;48.762;8.996;2024-02-14T10:11:56;7.10;99.90
20690;DHT22;10504;48.762;8.996;2024-02-14T10:14:25;7.10;99.90
20690;DHT22;10504;48.762;8.996;2024-02-14T10:16:52;7.10;99.90
20690;DHT22;10504;48.762;8.996;2024-02-14T10:19:18;7.10;99.90
20690;DHT22;10504;48.762;8.996;2024-02-14T10:21:44;7.10;99.90
20690;DHT22;10504;48.762;8.996;2024-02-14T10:24:20;7.20;99.90
20690;DHT22;10504;48.762;8.996;2024-02-14T10:26:45;7.20;99.90
20690;DHT22;10504;48.762;8.996;2024-02-14T10:29:11;7.30;99.90
20690;DHT22;10504;48.762;8.996;2024-02-14T10:31:37;7.30;99.90
20690;DHT22;10504;48.762;8.996;2024-02-14T10:34:04;7.40;99.90
20690;DHT22;10504;48.762;8.996;2024-02-14T10:36:31;7.50;99.90
20690;DHT22;10504;48.762;8.996;2024-02-14T10:39:01;7.60;99.90
20690;DHT22;10504;48.762;8.996;2024-02-14T10:41:30;7.60;99.90
20690;DHT22;10504;48.762;8.996;2024-02-14T10:44:03;7.60;99.90
20690;DHT22;10504;48.762;8.996;2024-02-14T10:46:36;7.70;99.90
20690;DHT22;10504;48.762;8.996;2024-02-14T10:49:03;7.80;99.90
20690;DHT22;10504;48.762;8.996;2024-02-14T10:51:34;8.00;99.90
20690;DHT22;10504;48.762;8.996;2024-02-14T10:54:20;8.00;99.90
20690;DHT22;10504;48.762;8.996;2024-02-14T10:56:49;8.20;99.90
20690;DHT22;10504;48.762;8.996;2024-02-14T10:59:19;8.30;99.90
20690;DHT22;10504;48.762;8.996;2024-02-14T11:01:47;8.50;99.90
20690;DHT22;10504;48.762;8.996;2024-02-14T11:04:13;8.70;99.90
20690;DHT22;10504;48.762;8.996;2024-02-14T11:06:52;8.70;99.90
20690;DHT22;10504;48.762;8.996;2024-02-14T11:09:37;8.90;99.90
20690;DHT22;10504;48.762;8.996;2024-02-14T11:12:07;8.90;99.90
20690;DHT22;10504;48.762;8.996;2024-02-14T11:14:34;8.90;99.90
20690;DHT22;10504;48.762;8.996;2024-02-14T11:17:02;9.00;99.90
20690;DHT22;10504;48.762;8.996;2024-02-14T11:19:34;9.00;99.90
20690;DHT22;10504;48.762;8.996;2024-02-14T11:22:16;9.00;99.90
20690;DHT22;10504;48.762;8.996;2024-02-14T11:24:48;9.00;99.90
20690;DHT22;10504;48.762;8.996;2024-02-14T11:27:17;9.00;99.90
20690;DHT22;10504;48.762;8.996;2024-02-14T11:29:52;9.10;99.90
20690;DHT22;10504;48.762;8.996;2024-02-14T11:32:18;9.10;99.90
20690;DHT22;10504;48.762;8.996;2024-02-14T11:34:55;9.10;99.90
20690;DHT22;10504;48.762;8.996;2024-02-14T11:37:28;9.10;99.90
20690;DHT22;10504;48.762;8.996;2024-02-14T11:39:55;9.20;99.90
20690;DHT22;10504;48.762;8.996;2024-02-14T11:42:24;9.20;99.90
20690;DHT22;10504;48.762;8.996;2024-02-14T11:44:49;9.20;99.90
20690;DHT22;10504;48.762;8.996;2024-02-14T11:47:15;9.20;99.90
20690;DHT22;10504;48.762;8.996;2024-02-14T11:49:41;9.20;99.90
20690;DHT22;10504;48.762;8.996;2024-02-14T11:52:11;9.30;99.90
20690;DHT22;10504;48.762;8.996;2024-02-14T11:54:37;9.30;99.90
20690;DHT22;10504;48.762;8.996;2024-02-14T11:57:03;9.30;99.90
20690;DHT22;10504;48.762;8.996;2024-02-14T11:59:29;9.40;99.90
20690;DHT22;10504;48.762;8.996;2024-02-14T12:01:55;9.50;99.90
20690;DHT22;10504;48.762;8.996;2024-02-14T12:04:23;9.50;99.90
20690;DHT22;10504;48.762;8.996;2024-02-14T12:06:49;9.60;99.90
20690;DHT22;10504;48.762;8.996;2024-02-14T12:09:15;9.60;99.90
20690;DHT22;10504;48.762;8.996;2024-02-14T12:11:41;9.60;99.90
20690;DHT22;10504;48.762;8.996;2024-02-14T12:14:11;9.70;99.90
20690;DHT22;10504;48.762;8.996;2024-02-14T12:16:37;9.80;99.90
20690;DHT22;10504;48.762;8.996;2024-02-14T12:19:15;9.80;99.90
20690;DHT22;10504;48.762;8.996;2024-02-14T12:21:42;9.90;99.90
20690;DHT22;10504;48.762;8.996;2024-02-14T12:24:13;9.90;99.90
20690;DHT22;10504;48.762;8.996;2024-02-14T12:26:40;9.80;99.90
20690;DHT22;10504;48.762;8.996;2024-02-14T12:29:07;9.80;99.90
20690;DHT22;10504;48.762;8.996;2024-02-14T12:31:34;9.80;99.90
20690;DHT22;10504;48.762;8.996;2024-02-14T12:34:02;9.80;99.90
20690;DHT22;10504;48.762;8.996;2024-02-14T12:36:28;9.80;99.90
20690;DHT22;10504;48.762;8.996;2024-02-14T12:38:54;9.90;99.90
20690;DHT22;10504;48.762;8.996;2024-02-14T12:41:20;9.90;99.90
20690;DHT22;10504;48.762;8.996;2024-02-14T12:43:47;9.90;99.90
20690;DHT22;10504;48.762;8.996;2024-02-14T12:46:13;9.90;99.90
20690;DHT22;10504;48.762;8.996;2024-02-14T12:48:39;10.00;99.90
20690;DHT22;10504;48.762;8.996;2024-02-14T12:51:05;10.00;99.90
20690;DHT22;10504;48.762;8.996;2024-02-14T12:53:30;10.00;99.90
20690;DHT22;10504;48.762;8.996;2024-02-14T12:55:56;10.00;99.90
20690;DHT22;10504;48.762;8.996;2024-02-14T12:58:22;10.00;99.90
20690;DHT22;10504;48.762;8.996;2024-02-14T13:00:47;9.90;99.90
20690;DHT22;10504;48.762;8.996;2024-02-14T13:03:13;9.90;99.90
20690;DHT22;10504;48.762;8.996;2024-02-14T13:05:39;10.00;99.90
20690;DHT22;10504;48.762;8.996;2024-02-14T13:08:07;10.00;99.90
20690;DHT22;10504;48.762;8.996;2024-02-14T13:10:33;10.10;99.90
20690;DHT22;10504;48.762;8.996;2024-02-14T13:12:59;10.10;99.90
20690;DHT22;10504;48.762;8.996;2024-02-14T13:15:24;10.10;99.90
20690;DHT22;10504;48.762;8.996;2024-02-14T13:17:50;10.20;99.90
20690;DHT22;10504;48.762;8.996;2024-02-14T13:20:16;10.30;99.90
20690;DHT22;10504;48.762;8.996;2024-02-14T13:22:42;10.30;99.90
20690;DHT22;10504;48.762;8.996;2024-02-14T13:25:08;10.50;99.90
20690;DHT22;10504;48.762;8.996;2024-02-14T13:27:34;10.50;99.90
20690;DHT22;10504;48.762;8.996;2024-02-14T13:30:01;10.50;99.90
20690;DHT22;10504;48.762;8.996;2024-02-14T13:32:27;10.50;99.90
20690;DHT22;10504;48.762;8.996;2024-02-14T13:34:53;10.60;99.90
20690;DHT22;10504;48.762;8.996;2024-02-14T13:37:19;10.50;99.90
20690;DHT22;10504;48.762;8.996;2024-02-14T13:39:46;10.50;99.90
20690;DHT22;10504;48.762;8.996;2024-02-14T13:42:11;10.50;99.90
20690;DHT22;10504;48.762;8.996;2024-02-14T13:44:37;10.50;99.90
20690;DHT22;10504;48.762;8.996;2024-02-14T13:47:03;10.40;99.90
20690;DHT22;10504;48.762;8.996;2024-02-14T13:49:28;10.50;99.90
20690;DHT22;10504;48.762;8.996;2024-02-14T13:51:54;10.40;99.90
20690;DHT22;10504;48.762;8.996;2024-02-14T13:54:21;10.40;99.90
20690;DHT22;10504;48.762;8.996;2024-02-14T13:56:47;10.40;99.90
20690;DHT22;10504;48.762;8.996;2024-02-14T13:59:14;10.30;99.90
20690;DHT22;10504;48.762;8.996;2024-02-14T14:01:40;10.20;99.90
20690;DHT22;10504;48.762;8.996;2024-02-14T14:04:06;10.20;99.90
20690;DHT22;10504;48.762;8.996;2024-02-14T14:06:32;10.20;99.90
20690;DHT22;10504;48.762;8.996;2024-02-14T14:08:58;10.10;99.90
20690;DHT22;10504;48.762;8.996;2024-02-14T14:11:24;10.10;99.90
20690;DHT22;10504;48.762;8.996;2024-02-14T14:13:50;10.10;99.90
20690;DHT22;10504;48.762;8.996;2024-02-14T14:16:15;10.10;99.90
20690;DHT22;10504;48.762;8.996;2024-02-14T14:18:41;10.10;99.90
20690;DHT22;10504;48.762;8.996;2024-02-14T14:21:07;10.00;99.90
20690;DHT22;10504;48.762;8.996;2024-02-14T14:23:32;10.00;99.90
20690;DHT22;10504;48.762;8.996;2024-02-14T14:25:59;10.00;99.90
20690;DHT22;10504;48.762;8.996;2024-02-14T14:28:26;9.90;99.90
20690;DHT22;10504;48.762;8.996;2024-02-14T14:30:51;9.90;99.90
20690;DHT22;10504;48.762;8.996;2024-02-14T14:33:19;10.00;99.90
20690;DHT22;10504;48.762;8.996;2024-02-14T14:35:45;9.90;99.90
20690;DHT22;10504;48.762;8.996;2024-02-14T14:38:11;9.90;99.90
20690;DHT22;10504;48.762;8.996;2024-02-14T14:40:36;9.90;99.90
20690;DHT22;10504;48.762;8.996;2024-02-14T14:43:03;9.90;99.90
20690;DHT22;10504;48.762;8.996;2024-02-14T14:45:29;10.00;99.90
20690;DHT22;10504;48.762;8.996;2024-02-14T14:47:56;9.90;99.90
20690;DHT22;10504;48.762;8.996;2024-02-14T14:50:22;9.90;99.90
20690;DHT22;10504;48.762;8.996;2024-02-14T14:52:47;9.90;99.90
20690;DHT22;10504;48.762;8.996;2024-02-14T14:55:13;9.90;99.90
20690;DHT22;10504;48.762;8.996;2024-02-14T14:57:38;9.90;99.90
20690;DHT22;10504;48.762;8.996;2024-02-14T15:00:09;9.80;99.90
20690;DHT22;10504;48.762;8.996;2024-02-14T15:02:43;9.90;99.90
20690;DHT22;10504;48.762;8.996;2024-02-14T15:05:13;9.80;99.90
20690;DHT22;10504;48.762;8.996;2024-02-14T15:07:39;9.80;99.90
20690;DHT22;10504;48.762;8.996;2024-02-14T15:10:06;9.80;99.90
20690;DHT22;10504;48.762;8.996;2024-02-14T15:12:33;9.80;99.90
20690;DHT22;10504;48.762;8.996;2024-02-14T15:15:04;9.80;99.90
20690;DHT22;10504;48.762;8.996;2024-02-14T15:17:30;9.80;99.90
20690;DHT22;10504;48.762;8.996;2024-02-14T15:19:56;9.80;99.90
20690;DHT22;10504;48.762;8.996;2024-02-14T15:22:22;9.80;99.90
20690;DHT22;10504;48.762;8.996;2024-02-14T15:24:50;9.80;99.90
20690;DHT22;10504;48.762;8.996;2024-02-14T15:27:17;9.80;99.90
20690;DHT22;10504;48.762;8.996;2024-02-14T15:29:48;9.80;99.90
20690;DHT22;10504;48.762;8.996;2024-02-14T15:32:32;9.80;99.90
20690;DHT22;10504;48.762;8.996;2024-02-14T15:35:17;9.80;99.90
20690;DHT22;10504;48.762;8.996;2024-02-14T15:37:43;9.80;99.90
20690;DHT22;10504;48.762;8.996;2024-02-14T15:40:10;9.80;99.90
20690;DHT22;10504;48.762;8.996;2024-02-14T15:42:36;9.80;99.90